<?xml version="1.0" encoding="UTF-8" standalone="no" ?>
<gpx xmlns="http://www.topografix.com/GPX/1/1" xmlns:xsi="http://www.w3.org/2001/XMLSchema-instance" xsi:schemaLocation="http://www.topografix.com/GPX/1/1 http://www.topografix.com/GPX/1/1/gpx.xsd" version="1.1" creator="VisuGPX - https://www.visugpx.com">
  <metadata>
    <name>Redon_Chateaulin</name>
    <desc><![CDATA[Randonnée cyclotouriste de Redon à Châteaulin par le chemin de halage du canal de Nantes à Brest avec quelques échappées vers Rostrenen, Carhaix et Pleyben.]]></desc>
  </metadata>
  <trk>
    <name><![CDATA[ACTIVE LOG 007]]></name>
    <trkseg>
      <trkpt lat="48.19909" lon="-3.01323">
        <ele>147.21899414062</ele>
        <time>2012-04-17T09:21:53Z</time>
      </trkpt>
      <trkpt lat="48.19913" lon="-3.01317">
        <ele>147.69970703125</ele>
        <time>2012-04-17T09:23:32Z</time>
      </trkpt>
      <trkpt lat="48.19886" lon="-3.01283">
        <ele>144.33520507812</ele>
        <time>2012-04-17T09:23:59Z</time>
      </trkpt>
      <trkpt lat="48.19866" lon="-3.0129">
        <ele>140.00915527344</ele>
        <time>2012-04-17T09:24:16Z</time>
      </trkpt>
      <trkpt lat="48.19867" lon="-3.01294">
        <ele>139.52844238281</ele>
        <time>2012-04-17T09:24:28Z</time>
      </trkpt>
      <trkpt lat="48.19864" lon="-3.01288">
        <ele>139.52844238281</ele>
        <time>2012-04-17T09:24:33Z</time>
      </trkpt>
      <trkpt lat="48.19867" lon="-3.01277">
        <ele>139.52844238281</ele>
        <time>2012-04-17T09:24:38Z</time>
      </trkpt>
      <trkpt lat="48.1987" lon="-3.01277">
        <ele>140.00915527344</ele>
        <time>2012-04-17T09:24:59Z</time>
      </trkpt>
      <trkpt lat="48.19867" lon="-3.0128">
        <ele>140.48986816406</ele>
        <time>2012-04-17T09:26:15Z</time>
      </trkpt>
      <trkpt lat="48.19866" lon="-3.01282">
        <ele>140.97045898438</ele>
        <time>2012-04-17T09:26:28Z</time>
      </trkpt>
      <trkpt lat="48.1986" lon="-3.01285">
        <ele>140.48986816406</ele>
        <time>2012-04-17T09:26:44Z</time>
      </trkpt>
      <trkpt lat="48.19857" lon="-3.01286">
        <ele>140.48986816406</ele>
        <time>2012-04-17T09:26:46Z</time>
      </trkpt>
      <trkpt lat="48.1984" lon="-3.01267">
        <ele>139.0478515625</ele>
        <time>2012-04-17T09:26:53Z</time>
      </trkpt>
      <trkpt lat="48.19799" lon="-3.01156">
        <ele>137.60583496094</ele>
        <time>2012-04-17T09:27:10Z</time>
      </trkpt>
      <trkpt lat="48.1977" lon="-3.0103">
        <ele>140.48986816406</ele>
        <time>2012-04-17T09:27:31Z</time>
      </trkpt>
      <trkpt lat="48.19738" lon="-3.00912">
        <ele>142.89306640625</ele>
        <time>2012-04-17T09:27:51Z</time>
      </trkpt>
      <trkpt lat="48.19704" lon="-3.0081">
        <ele>147.21899414062</ele>
        <time>2012-04-17T09:28:13Z</time>
      </trkpt>
      <trkpt lat="48.19701" lon="-3.0071">
        <ele>149.62231445312</ele>
        <time>2012-04-17T09:28:32Z</time>
      </trkpt>
      <trkpt lat="48.19702" lon="-3.0059">
        <ele>148.66101074219</ele>
        <time>2012-04-17T09:28:52Z</time>
      </trkpt>
      <trkpt lat="48.1971" lon="-3.00451">
        <ele>150.58361816406</ele>
        <time>2012-04-17T09:29:15Z</time>
      </trkpt>
      <trkpt lat="48.19725" lon="-3.00395">
        <ele>151.544921875</ele>
        <time>2012-04-17T09:29:30Z</time>
      </trkpt>
      <trkpt lat="48.1976" lon="-3.00333">
        <ele>153.46765136719</ele>
        <time>2012-04-17T09:29:52Z</time>
      </trkpt>
      <trkpt lat="48.19801" lon="-3.00269">
        <ele>158.27416992188</ele>
        <time>2012-04-17T09:30:15Z</time>
      </trkpt>
      <trkpt lat="48.19868" lon="-3.00195">
        <ele>164.04211425781</ele>
        <time>2012-04-17T09:30:48Z</time>
      </trkpt>
      <trkpt lat="48.19924" lon="-3.00133">
        <ele>162.60009765625</ele>
        <time>2012-04-17T09:31:08Z</time>
      </trkpt>
      <trkpt lat="48.19995" lon="-3.00048">
        <ele>160.67749023438</ele>
        <time>2012-04-17T09:31:28Z</time>
      </trkpt>
      <trkpt lat="48.20013" lon="-3.00023">
        <ele>161.158203125</ele>
        <time>2012-04-17T09:31:40Z</time>
      </trkpt>
      <trkpt lat="48.20015" lon="-3.00019">
        <ele>161.158203125</ele>
        <time>2012-04-17T09:31:49Z</time>
      </trkpt>
      <trkpt lat="48.20031" lon="-3.00034">
        <ele>161.158203125</ele>
        <time>2012-04-17T09:32:00Z</time>
      </trkpt>
      <trkpt lat="48.20045" lon="-3.00042">
        <ele>160.67749023438</ele>
        <time>2012-04-17T09:32:03Z</time>
      </trkpt>
      <trkpt lat="48.20064" lon="-3.00046">
        <ele>160.67749023438</ele>
        <time>2012-04-17T09:32:07Z</time>
      </trkpt>
      <trkpt lat="48.20143" lon="-3.00033">
        <ele>161.63891601562</ele>
        <time>2012-04-17T09:32:27Z</time>
      </trkpt>
      <trkpt lat="48.20242" lon="-3.00036">
        <ele>161.158203125</ele>
        <time>2012-04-17T09:32:50Z</time>
      </trkpt>
      <trkpt lat="48.20334" lon="-3.00062">
        <ele>159.23547363281</ele>
        <time>2012-04-17T09:33:10Z</time>
      </trkpt>
      <trkpt lat="48.20355" lon="-3.00068">
        <ele>158.75476074219</ele>
        <time>2012-04-17T09:33:14Z</time>
      </trkpt>
      <trkpt lat="48.20405" lon="-3.00069">
        <ele>157.31286621094</ele>
        <time>2012-04-17T09:33:25Z</time>
      </trkpt>
      <trkpt lat="48.20406" lon="-3.00068">
        <ele>156.3515625</ele>
        <time>2012-04-17T09:33:33Z</time>
      </trkpt>
      <trkpt lat="48.20529" lon="-3.00075">
        <ele>153.94836425781</ele>
        <time>2012-04-17T09:33:56Z</time>
      </trkpt>
      <trkpt lat="48.20631" lon="-3.00077">
        <ele>153.94836425781</ele>
        <time>2012-04-17T09:34:18Z</time>
      </trkpt>
      <trkpt lat="48.20698" lon="-3.00099">
        <ele>157.79357910156</ele>
        <time>2012-04-17T09:34:35Z</time>
      </trkpt>
      <trkpt lat="48.20757" lon="-3.00142">
        <ele>153.94836425781</ele>
        <time>2012-04-17T09:34:50Z</time>
      </trkpt>
      <trkpt lat="48.20834" lon="-3.0023">
        <ele>150.10302734375</ele>
        <time>2012-04-17T09:35:10Z</time>
      </trkpt>
      <trkpt lat="48.20905" lon="-3.0031">
        <ele>149.62231445312</ele>
        <time>2012-04-17T09:35:29Z</time>
      </trkpt>
      <trkpt lat="48.20965" lon="-3.00378">
        <ele>150.58361816406</ele>
        <time>2012-04-17T09:35:47Z</time>
      </trkpt>
      <trkpt lat="48.21024" lon="-3.00448">
        <ele>152.02575683594</ele>
        <time>2012-04-17T09:36:07Z</time>
      </trkpt>
      <trkpt lat="48.21071" lon="-3.00504">
        <ele>152.98693847656</ele>
        <time>2012-04-17T09:36:22Z</time>
      </trkpt>
      <trkpt lat="48.21158" lon="-3.00605">
        <ele>152.50634765625</ele>
        <time>2012-04-17T09:36:49Z</time>
      </trkpt>
      <trkpt lat="48.21225" lon="-3.00614">
        <ele>152.02575683594</ele>
        <time>2012-04-17T09:37:07Z</time>
      </trkpt>
      <trkpt lat="48.2123" lon="-3.00691">
        <ele>148.66101074219</ele>
        <time>2012-04-17T09:37:24Z</time>
      </trkpt>
      <trkpt lat="48.21335" lon="-3.00813">
        <ele>146.2578125</ele>
        <time>2012-04-17T09:37:52Z</time>
      </trkpt>
      <trkpt lat="48.21416" lon="-3.00904">
        <ele>145.77709960938</ele>
        <time>2012-04-17T09:38:15Z</time>
      </trkpt>
      <trkpt lat="48.21458" lon="-3.00952">
        <ele>146.2578125</ele>
        <time>2012-04-17T09:38:28Z</time>
      </trkpt>
      <trkpt lat="48.21489" lon="-3.00999">
        <ele>145.29638671875</ele>
        <time>2012-04-17T09:38:39Z</time>
      </trkpt>
      <trkpt lat="48.21522" lon="-3.01071">
        <ele>145.29638671875</ele>
        <time>2012-04-17T09:38:54Z</time>
      </trkpt>
      <trkpt lat="48.21539" lon="-3.01124">
        <ele>144.33520507812</ele>
        <time>2012-04-17T09:39:04Z</time>
      </trkpt>
      <trkpt lat="48.21554" lon="-3.01191">
        <ele>145.29638671875</ele>
        <time>2012-04-17T09:39:16Z</time>
      </trkpt>
      <trkpt lat="48.21555" lon="-3.01208">
        <ele>142.89306640625</ele>
        <time>2012-04-17T09:39:19Z</time>
      </trkpt>
      <trkpt lat="48.21556" lon="-3.01299">
        <ele>142.89306640625</ele>
        <time>2012-04-17T09:39:35Z</time>
      </trkpt>
      <trkpt lat="48.21538" lon="-3.01363">
        <ele>144.81579589844</ele>
        <time>2012-04-17T09:39:49Z</time>
      </trkpt>
      <trkpt lat="48.21525" lon="-3.01398">
        <ele>145.29638671875</ele>
        <time>2012-04-17T09:39:57Z</time>
      </trkpt>
      <trkpt lat="48.21509" lon="-3.01447">
        <ele>145.77709960938</ele>
        <time>2012-04-17T09:40:08Z</time>
      </trkpt>
      <trkpt lat="48.21485" lon="-3.01515">
        <ele>144.81579589844</ele>
        <time>2012-04-17T09:40:23Z</time>
      </trkpt>
      <trkpt lat="48.21478" lon="-3.01535">
        <ele>145.29638671875</ele>
        <time>2012-04-17T09:40:30Z</time>
      </trkpt>
      <trkpt lat="48.21464" lon="-3.01576">
        <ele>145.29638671875</ele>
        <time>2012-04-17T09:40:41Z</time>
      </trkpt>
      <trkpt lat="48.21484" lon="-3.01696">
        <ele>146.73840332031</ele>
        <time>2012-04-17T09:41:03Z</time>
      </trkpt>
      <trkpt lat="48.21498" lon="-3.01799">
        <ele>147.21899414062</ele>
        <time>2012-04-17T09:41:26Z</time>
      </trkpt>
      <trkpt lat="48.21517" lon="-3.01924">
        <ele>149.62231445312</ele>
        <time>2012-04-17T09:41:53Z</time>
      </trkpt>
      <trkpt lat="48.21532" lon="-3.02027">
        <ele>151.06420898438</ele>
        <time>2012-04-17T09:42:16Z</time>
      </trkpt>
      <trkpt lat="48.21553" lon="-3.02116">
        <ele>151.544921875</ele>
        <time>2012-04-17T09:42:38Z</time>
      </trkpt>
      <trkpt lat="48.21585" lon="-3.02186">
        <ele>153.46765136719</ele>
        <time>2012-04-17T09:42:57Z</time>
      </trkpt>
      <trkpt lat="48.21623" lon="-3.02251">
        <ele>153.46765136719</ele>
        <time>2012-04-17T09:43:16Z</time>
      </trkpt>
      <trkpt lat="48.21661" lon="-3.02308">
        <ele>155.39025878906</ele>
        <time>2012-04-17T09:43:35Z</time>
      </trkpt>
      <trkpt lat="48.21697" lon="-3.0236">
        <ele>154.90954589844</ele>
        <time>2012-04-17T09:43:51Z</time>
      </trkpt>
      <trkpt lat="48.21724" lon="-3.02426">
        <ele>154.42895507812</ele>
        <time>2012-04-17T09:44:08Z</time>
      </trkpt>
      <trkpt lat="48.21737" lon="-3.02525">
        <ele>159.23547363281</ele>
        <time>2012-04-17T09:44:29Z</time>
      </trkpt>
      <trkpt lat="48.21734" lon="-3.02589">
        <ele>160.67749023438</ele>
        <time>2012-04-17T09:44:44Z</time>
      </trkpt>
      <trkpt lat="48.21717" lon="-3.02662">
        <ele>161.63891601562</ele>
        <time>2012-04-17T09:45:01Z</time>
      </trkpt>
      <trkpt lat="48.21694" lon="-3.02724">
        <ele>164.04211425781</ele>
        <time>2012-04-17T09:45:17Z</time>
      </trkpt>
      <trkpt lat="48.21678" lon="-3.02776">
        <ele>164.04211425781</ele>
        <time>2012-04-17T09:45:31Z</time>
      </trkpt>
      <trkpt lat="48.21657" lon="-3.02829">
        <ele>163.08081054688</ele>
        <time>2012-04-17T09:45:45Z</time>
      </trkpt>
      <trkpt lat="48.21625" lon="-3.02906">
        <ele>165.00341796875</ele>
        <time>2012-04-17T09:46:04Z</time>
      </trkpt>
      <trkpt lat="48.21602" lon="-3.02974">
        <ele>164.52270507812</ele>
        <time>2012-04-17T09:46:21Z</time>
      </trkpt>
      <trkpt lat="48.21578" lon="-3.03037">
        <ele>165.48413085938</ele>
        <time>2012-04-17T09:46:36Z</time>
      </trkpt>
      <trkpt lat="48.21556" lon="-3.03092">
        <ele>167.40673828125</ele>
        <time>2012-04-17T09:46:50Z</time>
      </trkpt>
      <trkpt lat="48.21537" lon="-3.03151">
        <ele>167.40673828125</ele>
        <time>2012-04-17T09:47:05Z</time>
      </trkpt>
      <trkpt lat="48.21516" lon="-3.0323">
        <ele>167.40673828125</ele>
        <time>2012-04-17T09:47:24Z</time>
      </trkpt>
      <trkpt lat="48.21513" lon="-3.03248">
        <ele>167.88732910156</ele>
        <time>2012-04-17T09:47:36Z</time>
      </trkpt>
      <trkpt lat="48.21508" lon="-3.03275">
        <ele>167.88732910156</ele>
        <time>2012-04-17T09:50:40Z</time>
      </trkpt>
      <trkpt lat="48.21497" lon="-3.03355">
        <ele>168.36804199219</ele>
        <time>2012-04-17T09:50:59Z</time>
      </trkpt>
      <trkpt lat="48.21492" lon="-3.03451">
        <ele>167.40673828125</ele>
        <time>2012-04-17T09:51:20Z</time>
      </trkpt>
      <trkpt lat="48.2149" lon="-3.03603">
        <ele>169.32946777344</ele>
        <time>2012-04-17T09:51:49Z</time>
      </trkpt>
      <trkpt lat="48.21481" lon="-3.03625">
        <ele>169.32946777344</ele>
        <time>2012-04-17T09:51:53Z</time>
      </trkpt>
      <trkpt lat="48.21478" lon="-3.03649">
        <ele>168.36804199219</ele>
        <time>2012-04-17T09:51:57Z</time>
      </trkpt>
      <trkpt lat="48.21506" lon="-3.03776">
        <ele>169.32946777344</ele>
        <time>2012-04-17T09:52:23Z</time>
      </trkpt>
      <trkpt lat="48.21525" lon="-3.03836">
        <ele>167.88732910156</ele>
        <time>2012-04-17T09:52:35Z</time>
      </trkpt>
      <trkpt lat="48.21558" lon="-3.03963">
        <ele>166.92602539062</ele>
        <time>2012-04-17T09:52:54Z</time>
      </trkpt>
      <trkpt lat="48.21556" lon="-3.03965">
        <ele>168.36804199219</ele>
        <time>2012-04-17T09:53:00Z</time>
      </trkpt>
      <trkpt lat="48.21564" lon="-3.04011">
        <ele>168.36804199219</ele>
        <time>2012-04-17T09:53:13Z</time>
      </trkpt>
      <trkpt lat="48.21555" lon="-3.04119">
        <ele>170.29064941406</ele>
        <time>2012-04-17T09:53:34Z</time>
      </trkpt>
      <trkpt lat="48.21523" lon="-3.04236">
        <ele>171.73266601562</ele>
        <time>2012-04-17T09:53:57Z</time>
      </trkpt>
      <trkpt lat="48.21484" lon="-3.04371">
        <ele>172.21325683594</ele>
        <time>2012-04-17T09:54:24Z</time>
      </trkpt>
      <trkpt lat="48.21476" lon="-3.04468">
        <ele>172.21325683594</ele>
        <time>2012-04-17T09:54:42Z</time>
      </trkpt>
      <trkpt lat="48.21485" lon="-3.0455">
        <ele>174.61657714844</ele>
        <time>2012-04-17T09:55:00Z</time>
      </trkpt>
      <trkpt lat="48.21506" lon="-3.04618">
        <ele>176.05859375</ele>
        <time>2012-04-17T09:55:17Z</time>
      </trkpt>
      <trkpt lat="48.21529" lon="-3.04692">
        <ele>178.4619140625</ele>
        <time>2012-04-17T09:55:35Z</time>
      </trkpt>
      <trkpt lat="48.21553" lon="-3.04771">
        <ele>177.98120117188</ele>
        <time>2012-04-17T09:55:54Z</time>
      </trkpt>
      <trkpt lat="48.21582" lon="-3.04871">
        <ele>178.4619140625</ele>
        <time>2012-04-17T09:56:18Z</time>
      </trkpt>
      <trkpt lat="48.21606" lon="-3.04948">
        <ele>179.42321777344</ele>
        <time>2012-04-17T09:56:37Z</time>
      </trkpt>
      <trkpt lat="48.21626" lon="-3.0501">
        <ele>180.865234375</ele>
        <time>2012-04-17T09:56:54Z</time>
      </trkpt>
      <trkpt lat="48.21648" lon="-3.05075">
        <ele>183.26843261719</ele>
        <time>2012-04-17T09:57:10Z</time>
      </trkpt>
      <trkpt lat="48.21671" lon="-3.05147">
        <ele>184.71057128906</ele>
        <time>2012-04-17T09:57:27Z</time>
      </trkpt>
      <trkpt lat="48.21693" lon="-3.0522">
        <ele>184.71057128906</ele>
        <time>2012-04-17T09:57:44Z</time>
      </trkpt>
      <trkpt lat="48.21707" lon="-3.05271">
        <ele>182.30712890625</ele>
        <time>2012-04-17T09:57:56Z</time>
      </trkpt>
      <trkpt lat="48.21732" lon="-3.05377">
        <ele>186.63317871094</ele>
        <time>2012-04-17T09:58:19Z</time>
      </trkpt>
      <trkpt lat="48.21731" lon="-3.0546">
        <ele>187.11376953125</ele>
        <time>2012-04-17T09:58:35Z</time>
      </trkpt>
      <trkpt lat="48.21725" lon="-3.05521">
        <ele>185.67175292969</ele>
        <time>2012-04-17T09:58:47Z</time>
      </trkpt>
      <trkpt lat="48.21717" lon="-3.05588">
        <ele>188.07507324219</ele>
        <time>2012-04-17T09:59:01Z</time>
      </trkpt>
      <trkpt lat="48.21708" lon="-3.05655">
        <ele>190.958984375</ele>
        <time>2012-04-17T09:59:16Z</time>
      </trkpt>
      <trkpt lat="48.21696" lon="-3.05749">
        <ele>189.03637695312</ele>
        <time>2012-04-17T09:59:38Z</time>
      </trkpt>
      <trkpt lat="48.21677" lon="-3.05819">
        <ele>189.03637695312</ele>
        <time>2012-04-17T09:59:55Z</time>
      </trkpt>
      <trkpt lat="48.2165" lon="-3.05892">
        <ele>189.99768066406</ele>
        <time>2012-04-17T10:00:14Z</time>
      </trkpt>
      <trkpt lat="48.216" lon="-3.0599">
        <ele>193.84301757812</ele>
        <time>2012-04-17T10:00:42Z</time>
      </trkpt>
      <trkpt lat="48.21563" lon="-3.06063">
        <ele>196.72692871094</ele>
        <time>2012-04-17T10:01:03Z</time>
      </trkpt>
      <trkpt lat="48.21541" lon="-3.06121">
        <ele>198.64953613281</ele>
        <time>2012-04-17T10:01:19Z</time>
      </trkpt>
      <trkpt lat="48.21536" lon="-3.06141">
        <ele>197.68823242188</ele>
        <time>2012-04-17T10:01:24Z</time>
      </trkpt>
      <trkpt lat="48.21523" lon="-3.06206">
        <ele>197.68823242188</ele>
        <time>2012-04-17T10:01:40Z</time>
      </trkpt>
      <trkpt lat="48.21517" lon="-3.06259">
        <ele>195.765625</ele>
        <time>2012-04-17T10:01:53Z</time>
      </trkpt>
      <trkpt lat="48.21513" lon="-3.06316">
        <ele>195.28491210938</ele>
        <time>2012-04-17T10:02:06Z</time>
      </trkpt>
      <trkpt lat="48.21517" lon="-3.0638">
        <ele>197.68823242188</ele>
        <time>2012-04-17T10:02:19Z</time>
      </trkpt>
      <trkpt lat="48.21537" lon="-3.06477">
        <ele>197.68823242188</ele>
        <time>2012-04-17T10:02:39Z</time>
      </trkpt>
      <trkpt lat="48.2157" lon="-3.06549">
        <ele>196.72692871094</ele>
        <time>2012-04-17T10:02:56Z</time>
      </trkpt>
      <trkpt lat="48.21601" lon="-3.06598">
        <ele>194.80432128906</ele>
        <time>2012-04-17T10:03:09Z</time>
      </trkpt>
      <trkpt lat="48.21651" lon="-3.06667">
        <ele>196.72692871094</ele>
        <time>2012-04-17T10:03:28Z</time>
      </trkpt>
      <trkpt lat="48.21686" lon="-3.06715">
        <ele>195.765625</ele>
        <time>2012-04-17T10:03:41Z</time>
      </trkpt>
      <trkpt lat="48.21763" lon="-3.06819">
        <ele>196.24633789062</ele>
        <time>2012-04-17T10:04:09Z</time>
      </trkpt>
      <trkpt lat="48.21809" lon="-3.06913">
        <ele>196.24633789062</ele>
        <time>2012-04-17T10:04:30Z</time>
      </trkpt>
      <trkpt lat="48.21845" lon="-3.0704">
        <ele>193.84301757812</ele>
        <time>2012-04-17T10:04:53Z</time>
      </trkpt>
      <trkpt lat="48.21859" lon="-3.07169">
        <ele>195.28491210938</ele>
        <time>2012-04-17T10:05:14Z</time>
      </trkpt>
      <trkpt lat="48.21859" lon="-3.072">
        <ele>195.28491210938</ele>
        <time>2012-04-17T10:05:19Z</time>
      </trkpt>
      <trkpt lat="48.2185" lon="-3.07358">
        <ele>195.28491210938</ele>
        <time>2012-04-17T10:05:45Z</time>
      </trkpt>
      <trkpt lat="48.21844" lon="-3.07488">
        <ele>194.80432128906</ele>
        <time>2012-04-17T10:06:08Z</time>
      </trkpt>
      <trkpt lat="48.21851" lon="-3.07625">
        <ele>196.72692871094</ele>
        <time>2012-04-17T10:06:33Z</time>
      </trkpt>
      <trkpt lat="48.2187" lon="-3.07738">
        <ele>196.72692871094</ele>
        <time>2012-04-17T10:06:54Z</time>
      </trkpt>
      <trkpt lat="48.2187" lon="-3.07741">
        <ele>195.765625</ele>
        <time>2012-04-17T10:07:07Z</time>
      </trkpt>
      <trkpt lat="48.21871" lon="-3.07746">
        <ele>196.24633789062</ele>
        <time>2012-04-17T10:07:10Z</time>
      </trkpt>
      <trkpt lat="48.21885" lon="-3.07817">
        <ele>194.32373046875</ele>
        <time>2012-04-17T10:07:26Z</time>
      </trkpt>
      <trkpt lat="48.21912" lon="-3.07965">
        <ele>193.84301757812</ele>
        <time>2012-04-17T10:07:52Z</time>
      </trkpt>
      <trkpt lat="48.21917" lon="-3.08094">
        <ele>191.92028808594</ele>
        <time>2012-04-17T10:08:12Z</time>
      </trkpt>
      <trkpt lat="48.2191" lon="-3.0819">
        <ele>191.92028808594</ele>
        <time>2012-04-17T10:08:26Z</time>
      </trkpt>
      <trkpt lat="48.21905" lon="-3.08233">
        <ele>191.43957519531</ele>
        <time>2012-04-17T10:08:32Z</time>
      </trkpt>
      <trkpt lat="48.21888" lon="-3.08306">
        <ele>191.43957519531</ele>
        <time>2012-04-17T10:08:46Z</time>
      </trkpt>
      <trkpt lat="48.21855" lon="-3.08416">
        <ele>189.51696777344</ele>
        <time>2012-04-17T10:09:04Z</time>
      </trkpt>
      <trkpt lat="48.21796" lon="-3.08527">
        <ele>189.51696777344</ele>
        <time>2012-04-17T10:09:25Z</time>
      </trkpt>
      <trkpt lat="48.21788" lon="-3.08632">
        <ele>189.51696777344</ele>
        <time>2012-04-17T10:09:45Z</time>
      </trkpt>
      <trkpt lat="48.21746" lon="-3.08787">
        <ele>188.55578613281</ele>
        <time>2012-04-17T10:10:09Z</time>
      </trkpt>
      <trkpt lat="48.21744" lon="-3.08955">
        <ele>188.55578613281</ele>
        <time>2012-04-17T10:10:34Z</time>
      </trkpt>
      <trkpt lat="48.2175" lon="-3.09007">
        <ele>188.55578613281</ele>
        <time>2012-04-17T10:10:42Z</time>
      </trkpt>
      <trkpt lat="48.21755" lon="-3.09034">
        <ele>187.11376953125</ele>
        <time>2012-04-17T10:10:46Z</time>
      </trkpt>
      <trkpt lat="48.21777" lon="-3.09157">
        <ele>187.11376953125</ele>
        <time>2012-04-17T10:11:06Z</time>
      </trkpt>
      <trkpt lat="48.21782" lon="-3.09184">
        <ele>187.11376953125</ele>
        <time>2012-04-17T10:11:11Z</time>
      </trkpt>
      <trkpt lat="48.21802" lon="-3.09319">
        <ele>185.19116210938</ele>
        <time>2012-04-17T10:11:31Z</time>
      </trkpt>
      <trkpt lat="48.21805" lon="-3.09484">
        <ele>181.82641601562</ele>
        <time>2012-04-17T10:11:53Z</time>
      </trkpt>
      <trkpt lat="48.21788" lon="-3.09612">
        <ele>180.865234375</ele>
        <time>2012-04-17T10:12:10Z</time>
      </trkpt>
      <trkpt lat="48.21759" lon="-3.09717">
        <ele>178.94262695312</ele>
        <time>2012-04-17T10:12:25Z</time>
      </trkpt>
      <trkpt lat="48.2171" lon="-3.09865">
        <ele>176.53930664062</ele>
        <time>2012-04-17T10:12:48Z</time>
      </trkpt>
      <trkpt lat="48.21652" lon="-3.10048">
        <ele>175.09729003906</ele>
        <time>2012-04-17T10:13:16Z</time>
      </trkpt>
      <trkpt lat="48.21622" lon="-3.10266">
        <ele>173.17468261719</ele>
        <time>2012-04-17T10:13:44Z</time>
      </trkpt>
      <trkpt lat="48.21571" lon="-3.10373">
        <ele>173.6552734375</ele>
        <time>2012-04-17T10:14:04Z</time>
      </trkpt>
      <trkpt lat="48.21512" lon="-3.10495">
        <ele>170.29064941406</ele>
        <time>2012-04-17T10:14:26Z</time>
      </trkpt>
      <trkpt lat="48.2145" lon="-3.10623">
        <ele>165.96472167969</ele>
        <time>2012-04-17T10:14:47Z</time>
      </trkpt>
      <trkpt lat="48.21428" lon="-3.10682">
        <ele>168.84875488281</ele>
        <time>2012-04-17T10:15:01Z</time>
      </trkpt>
      <trkpt lat="48.21403" lon="-3.1075">
        <ele>168.36804199219</ele>
        <time>2012-04-17T10:15:17Z</time>
      </trkpt>
      <trkpt lat="48.21381" lon="-3.10814">
        <ele>166.92602539062</ele>
        <time>2012-04-17T10:15:29Z</time>
      </trkpt>
      <trkpt lat="48.21331" lon="-3.10893">
        <ele>165.48413085938</ele>
        <time>2012-04-17T10:15:45Z</time>
      </trkpt>
      <trkpt lat="48.21347" lon="-3.10943">
        <ele>163.5615234375</ele>
        <time>2012-04-17T10:15:57Z</time>
      </trkpt>
      <trkpt lat="48.21372" lon="-3.10988">
        <ele>165.00341796875</ele>
        <time>2012-04-17T10:16:09Z</time>
      </trkpt>
      <trkpt lat="48.21402" lon="-3.11089">
        <ele>163.08081054688</ele>
        <time>2012-04-17T10:16:26Z</time>
      </trkpt>
      <trkpt lat="48.21497" lon="-3.11206">
        <ele>161.63891601562</ele>
        <time>2012-04-17T10:16:47Z</time>
      </trkpt>
      <trkpt lat="48.21513" lon="-3.1137">
        <ele>158.27416992188</ele>
        <time>2012-04-17T10:17:08Z</time>
      </trkpt>
      <trkpt lat="48.21475" lon="-3.11479">
        <ele>156.3515625</ele>
        <time>2012-04-17T10:17:20Z</time>
      </trkpt>
      <trkpt lat="48.21485" lon="-3.11545">
        <ele>155.39025878906</ele>
        <time>2012-04-17T10:17:29Z</time>
      </trkpt>
      <trkpt lat="48.21529" lon="-3.11699">
        <ele>152.02575683594</ele>
        <time>2012-04-17T10:17:49Z</time>
      </trkpt>
      <trkpt lat="48.21587" lon="-3.11849">
        <ele>150.10302734375</ele>
        <time>2012-04-17T10:18:10Z</time>
      </trkpt>
      <trkpt lat="48.21647" lon="-3.11945">
        <ele>152.02575683594</ele>
        <time>2012-04-17T10:18:26Z</time>
      </trkpt>
      <trkpt lat="48.2174" lon="-3.12083">
        <ele>147.69970703125</ele>
        <time>2012-04-17T10:18:49Z</time>
      </trkpt>
      <trkpt lat="48.21795" lon="-3.12166">
        <ele>144.81579589844</ele>
        <time>2012-04-17T10:19:03Z</time>
      </trkpt>
      <trkpt lat="48.21841" lon="-3.12268">
        <ele>141.45104980469</ele>
        <time>2012-04-17T10:19:19Z</time>
      </trkpt>
      <trkpt lat="48.21844" lon="-3.12322">
        <ele>141.45104980469</ele>
        <time>2012-04-17T10:19:32Z</time>
      </trkpt>
      <trkpt lat="48.21844" lon="-3.12322">
        <ele>141.45104980469</ele>
        <time>2012-04-17T10:20:00Z</time>
      </trkpt>
      <trkpt lat="48.21844" lon="-3.12322">
        <ele>140.97045898438</ele>
        <time>2012-04-17T10:20:06Z</time>
      </trkpt>
      <trkpt lat="48.21844" lon="-3.12346">
        <ele>140.97045898438</ele>
        <time>2012-04-17T10:20:12Z</time>
      </trkpt>
      <trkpt lat="48.21844" lon="-3.12368">
        <ele>141.93176269531</ele>
        <time>2012-04-17T10:20:25Z</time>
      </trkpt>
      <trkpt lat="48.21844" lon="-3.12368">
        <ele>143.37365722656</ele>
        <time>2012-04-17T10:28:52Z</time>
      </trkpt>
      <trkpt lat="48.21817" lon="-3.12373">
        <ele>143.37365722656</ele>
        <time>2012-04-17T10:29:04Z</time>
      </trkpt>
      <trkpt lat="48.21812" lon="-3.12472">
        <ele>142.89306640625</ele>
        <time>2012-04-17T10:29:09Z</time>
      </trkpt>
      <trkpt lat="48.21788" lon="-3.12518">
        <ele>143.37365722656</ele>
        <time>2012-04-17T10:29:18Z</time>
      </trkpt>
      <trkpt lat="48.21772" lon="-3.1255">
        <ele>144.33520507812</ele>
        <time>2012-04-17T10:29:24Z</time>
      </trkpt>
      <trkpt lat="48.21753" lon="-3.12589">
        <ele>144.81579589844</ele>
        <time>2012-04-17T10:29:31Z</time>
      </trkpt>
      <trkpt lat="48.2171" lon="-3.12675">
        <ele>140.00915527344</ele>
        <time>2012-04-17T10:29:45Z</time>
      </trkpt>
      <trkpt lat="48.21671" lon="-3.12782">
        <ele>139.52844238281</ele>
        <time>2012-04-17T10:30:02Z</time>
      </trkpt>
      <trkpt lat="48.21669" lon="-3.12788">
        <ele>140.00915527344</ele>
        <time>2012-04-17T10:30:03Z</time>
      </trkpt>
      <trkpt lat="48.21583" lon="-3.12878">
        <ele>137.12524414062</ele>
        <time>2012-04-17T10:30:20Z</time>
      </trkpt>
      <trkpt lat="48.21607" lon="-3.12882">
        <ele>135.68310546875</ele>
        <time>2012-04-17T10:30:24Z</time>
      </trkpt>
      <trkpt lat="48.21582" lon="-3.12864">
        <ele>133.27990722656</ele>
        <time>2012-04-17T10:30:29Z</time>
      </trkpt>
      <trkpt lat="48.21582" lon="-3.1285">
        <ele>131.837890625</ele>
        <time>2012-04-17T10:30:31Z</time>
      </trkpt>
      <trkpt lat="48.21566" lon="-3.12828">
        <ele>127.03137207031</ele>
        <time>2012-04-17T10:30:40Z</time>
      </trkpt>
      <trkpt lat="48.21556" lon="-3.12824">
        <ele>126.06994628906</ele>
        <time>2012-04-17T10:30:42Z</time>
      </trkpt>
      <trkpt lat="48.215" lon="-3.12797">
        <ele>122.70544433594</ele>
        <time>2012-04-17T10:30:56Z</time>
      </trkpt>
      <trkpt lat="48.21491" lon="-3.12785">
        <ele>122.70544433594</ele>
        <time>2012-04-17T10:31:05Z</time>
      </trkpt>
      <trkpt lat="48.21484" lon="-3.12714">
        <ele>122.22473144531</ele>
        <time>2012-04-17T10:31:20Z</time>
      </trkpt>
      <trkpt lat="48.21462" lon="-3.12666">
        <ele>121.744140625</ele>
        <time>2012-04-17T10:31:23Z</time>
      </trkpt>
      <trkpt lat="48.21422" lon="-3.12702">
        <ele>120.30212402344</ele>
        <time>2012-04-17T10:31:34Z</time>
      </trkpt>
      <trkpt lat="48.21372" lon="-3.12759">
        <ele>119.3408203125</ele>
        <time>2012-04-17T10:31:51Z</time>
      </trkpt>
      <trkpt lat="48.21328" lon="-3.1281">
        <ele>119.82141113281</ele>
        <time>2012-04-17T10:32:06Z</time>
      </trkpt>
      <trkpt lat="48.21299" lon="-3.12844">
        <ele>118.86010742188</ele>
        <time>2012-04-17T10:32:20Z</time>
      </trkpt>
      <trkpt lat="48.21299" lon="-3.12844">
        <ele>120.30212402344</ele>
        <time>2012-04-17T10:32:28Z</time>
      </trkpt>
      <trkpt lat="48.21292" lon="-3.12854">
        <ele>120.30212402344</ele>
        <time>2012-04-17T10:32:32Z</time>
      </trkpt>
      <trkpt lat="48.21313" lon="-3.12831">
        <ele>120.78283691406</ele>
        <time>2012-04-17T10:32:43Z</time>
      </trkpt>
      <trkpt lat="48.21314" lon="-3.12823">
        <ele>120.78283691406</ele>
        <time>2012-04-17T10:32:45Z</time>
      </trkpt>
      <trkpt lat="48.21308" lon="-3.12817">
        <ele>122.22473144531</ele>
        <time>2012-04-17T10:32:49Z</time>
      </trkpt>
      <trkpt lat="48.21283" lon="-3.128">
        <ele>123.66674804688</ele>
        <time>2012-04-17T10:33:01Z</time>
      </trkpt>
      <trkpt lat="48.21264" lon="-3.12785">
        <ele>123.66674804688</ele>
        <time>2012-04-17T10:33:10Z</time>
      </trkpt>
      <trkpt lat="48.21232" lon="-3.12766">
        <ele>124.14733886719</ele>
        <time>2012-04-17T10:33:24Z</time>
      </trkpt>
      <trkpt lat="48.21213" lon="-3.12749">
        <ele>124.14733886719</ele>
        <time>2012-04-17T10:33:36Z</time>
      </trkpt>
      <trkpt lat="48.2121" lon="-3.12742">
        <ele>125.10876464844</ele>
        <time>2012-04-17T10:33:48Z</time>
      </trkpt>
      <trkpt lat="48.21208" lon="-3.12747">
        <ele>126.55065917969</ele>
        <time>2012-04-17T10:33:53Z</time>
      </trkpt>
      <trkpt lat="48.21203" lon="-3.1275">
        <ele>127.03137207031</ele>
        <time>2012-04-17T10:33:55Z</time>
      </trkpt>
      <trkpt lat="48.21204" lon="-3.12753">
        <ele>129.43469238281</ele>
        <time>2012-04-17T10:34:01Z</time>
      </trkpt>
      <trkpt lat="48.21209" lon="-3.12732">
        <ele>134.2412109375</ele>
        <time>2012-04-17T10:34:19Z</time>
      </trkpt>
      <trkpt lat="48.21208" lon="-3.12726">
        <ele>134.72192382812</ele>
        <time>2012-04-17T10:34:22Z</time>
      </trkpt>
      <trkpt lat="48.21208" lon="-3.12715">
        <ele>136.64465332031</ele>
        <time>2012-04-17T10:34:43Z</time>
      </trkpt>
      <trkpt lat="48.21208" lon="-3.12718">
        <ele>137.60583496094</ele>
        <time>2012-04-17T10:35:00Z</time>
      </trkpt>
      <trkpt lat="48.21206" lon="-3.12726">
        <ele>142.89306640625</ele>
        <time>2012-04-17T10:35:20Z</time>
      </trkpt>
      <trkpt lat="48.21212" lon="-3.12728">
        <ele>143.85437011719</ele>
        <time>2012-04-17T10:35:37Z</time>
      </trkpt>
      <trkpt lat="48.21211" lon="-3.12714">
        <ele>145.29638671875</ele>
        <time>2012-04-17T10:35:56Z</time>
      </trkpt>
      <trkpt lat="48.21211" lon="-3.12708">
        <ele>149.1416015625</ele>
        <time>2012-04-17T10:36:22Z</time>
      </trkpt>
      <trkpt lat="48.21207" lon="-3.12694">
        <ele>153.46765136719</ele>
        <time>2012-04-17T10:36:43Z</time>
      </trkpt>
      <trkpt lat="48.21206" lon="-3.12704">
        <ele>158.75476074219</ele>
        <time>2012-04-17T10:36:55Z</time>
      </trkpt>
      <trkpt lat="48.21203" lon="-3.12704">
        <ele>160.67749023438</ele>
        <time>2012-04-17T10:37:18Z</time>
      </trkpt>
      <trkpt lat="48.21214" lon="-3.12718">
        <ele>165.00341796875</ele>
        <time>2012-04-17T10:37:44Z</time>
      </trkpt>
      <trkpt lat="48.21214" lon="-3.12735">
        <ele>163.5615234375</ele>
        <time>2012-04-17T10:38:24Z</time>
      </trkpt>
      <trkpt lat="48.21222" lon="-3.12738">
        <ele>155.87097167969</ele>
        <time>2012-04-17T10:38:53Z</time>
      </trkpt>
      <trkpt lat="48.21218" lon="-3.12733">
        <ele>150.58361816406</ele>
        <time>2012-04-17T10:39:33Z</time>
      </trkpt>
      <trkpt lat="48.21215" lon="-3.12734">
        <ele>151.06420898438</ele>
        <time>2012-04-17T10:40:11Z</time>
      </trkpt>
      <trkpt lat="48.21216" lon="-3.12736">
        <ele>146.2578125</ele>
        <time>2012-04-17T10:40:45Z</time>
      </trkpt>
      <trkpt lat="48.21206" lon="-3.12736">
        <ele>127.03137207031</ele>
        <time>2012-04-17T10:44:30Z</time>
      </trkpt>
      <trkpt lat="48.21214" lon="-3.12733">
        <ele>134.72192382812</ele>
        <time>2012-04-17T10:47:57Z</time>
      </trkpt>
      <trkpt lat="48.21215" lon="-3.12737">
        <ele>140.00915527344</ele>
        <time>2012-04-17T10:49:26Z</time>
      </trkpt>
      <trkpt lat="48.2121" lon="-3.12738">
        <ele>130.87670898438</ele>
        <time>2012-04-17T10:50:35Z</time>
      </trkpt>
      <trkpt lat="48.21215" lon="-3.12723">
        <ele>143.37365722656</ele>
        <time>2012-04-17T10:53:02Z</time>
      </trkpt>
      <trkpt lat="48.21219" lon="-3.12746">
        <ele>142.89306640625</ele>
        <time>2012-04-17T10:53:46Z</time>
      </trkpt>
      <trkpt lat="48.21217" lon="-3.1274">
        <ele>141.93176269531</ele>
        <time>2012-04-17T10:54:21Z</time>
      </trkpt>
      <trkpt lat="48.21209" lon="-3.12731">
        <ele>135.68310546875</ele>
        <time>2012-04-17T10:54:57Z</time>
      </trkpt>
      <trkpt lat="48.21205" lon="-3.12733">
        <ele>127.99255371094</ele>
        <time>2012-04-17T10:55:40Z</time>
      </trkpt>
      <trkpt lat="48.21205" lon="-3.12744">
        <ele>119.3408203125</ele>
        <time>2012-04-17T10:56:12Z</time>
      </trkpt>
      <trkpt lat="48.21201" lon="-3.12723">
        <ele>129.43469238281</ele>
        <time>2012-04-17T10:57:54Z</time>
      </trkpt>
      <trkpt lat="48.2121" lon="-3.12729">
        <ele>148.18041992188</ele>
        <time>2012-04-17T10:58:58Z</time>
      </trkpt>
      <trkpt lat="48.21213" lon="-3.1274">
        <ele>154.90954589844</ele>
        <time>2012-04-17T10:59:43Z</time>
      </trkpt>
      <trkpt lat="48.21208" lon="-3.12738">
        <ele>152.02575683594</ele>
        <time>2012-04-17T11:00:24Z</time>
      </trkpt>
      <trkpt lat="48.21203" lon="-3.12747">
        <ele>121.744140625</ele>
        <time>2012-04-17T11:02:41Z</time>
      </trkpt>
      <trkpt lat="48.21203" lon="-3.12737">
        <ele>122.22473144531</ele>
        <time>2012-04-17T11:03:11Z</time>
      </trkpt>
      <trkpt lat="48.21206" lon="-3.12741">
        <ele>122.70544433594</ele>
        <time>2012-04-17T11:03:55Z</time>
      </trkpt>
      <trkpt lat="48.21217" lon="-3.12749">
        <ele>137.60583496094</ele>
        <time>2012-04-17T11:05:13Z</time>
      </trkpt>
      <trkpt lat="48.21209" lon="-3.12739">
        <ele>127.99255371094</ele>
        <time>2012-04-17T11:07:09Z</time>
      </trkpt>
      <trkpt lat="48.21207" lon="-3.12741">
        <ele>122.22473144531</ele>
        <time>2012-04-17T11:08:01Z</time>
      </trkpt>
      <trkpt lat="48.21213" lon="-3.12743">
        <ele>129.91528320312</ele>
        <time>2012-04-17T11:14:34Z</time>
      </trkpt>
      <trkpt lat="48.21219" lon="-3.12733">
        <ele>146.2578125</ele>
        <time>2012-04-17T11:15:37Z</time>
      </trkpt>
      <trkpt lat="48.21228" lon="-3.12732">
        <ele>158.27416992188</ele>
        <time>2012-04-17T11:16:07Z</time>
      </trkpt>
      <trkpt lat="48.21218" lon="-3.12743">
        <ele>167.88732910156</ele>
        <time>2012-04-17T11:17:53Z</time>
      </trkpt>
      <trkpt lat="48.21205" lon="-3.12729">
        <ele>115.49560546875</ele>
        <time>2012-04-17T11:21:17Z</time>
      </trkpt>
      <trkpt lat="48.21219" lon="-3.12751">
        <ele>126.06994628906</ele>
        <time>2012-04-17T11:22:13Z</time>
      </trkpt>
      <trkpt lat="48.21214" lon="-3.12753">
        <ele>128.47338867188</ele>
        <time>2012-04-17T11:22:53Z</time>
      </trkpt>
      <trkpt lat="48.21212" lon="-3.12722">
        <ele>131.35729980469</ele>
        <time>2012-04-17T11:26:30Z</time>
      </trkpt>
      <trkpt lat="48.21205" lon="-3.12726">
        <ele>139.52844238281</ele>
        <time>2012-04-17T11:27:01Z</time>
      </trkpt>
      <trkpt lat="48.2121" lon="-3.12732">
        <ele>138.08654785156</ele>
        <time>2012-04-17T11:27:38Z</time>
      </trkpt>
      <trkpt lat="48.21199" lon="-3.12724">
        <ele>134.2412109375</ele>
        <time>2012-04-17T11:28:17Z</time>
      </trkpt>
      <trkpt lat="48.2121" lon="-3.12743">
        <ele>123.66674804688</ele>
        <time>2012-04-17T11:28:54Z</time>
      </trkpt>
      <trkpt lat="48.21204" lon="-3.12746">
        <ele>125.58935546875</ele>
        <time>2012-04-17T11:30:19Z</time>
      </trkpt>
      <trkpt lat="48.21213" lon="-3.12747">
        <ele>127.03137207031</ele>
        <time>2012-04-17T11:30:53Z</time>
      </trkpt>
      <trkpt lat="48.2122" lon="-3.12756">
        <ele>130.87670898438</ele>
        <time>2012-04-17T11:31:26Z</time>
      </trkpt>
      <trkpt lat="48.21206" lon="-3.12749">
        <ele>126.55065917969</ele>
        <time>2012-04-17T11:31:57Z</time>
      </trkpt>
      <trkpt lat="48.21216" lon="-3.12759">
        <ele>121.26354980469</ele>
        <time>2012-04-17T11:32:39Z</time>
      </trkpt>
      <trkpt lat="48.21213" lon="-3.12744">
        <ele>121.744140625</ele>
        <time>2012-04-17T11:33:36Z</time>
      </trkpt>
      <trkpt lat="48.21235" lon="-3.12741">
        <ele>142.41247558594</ele>
        <time>2012-04-17T11:34:44Z</time>
      </trkpt>
      <trkpt lat="48.21233" lon="-3.12728">
        <ele>152.50634765625</ele>
        <time>2012-04-17T11:35:19Z</time>
      </trkpt>
      <trkpt lat="48.21215" lon="-3.12732">
        <ele>152.50634765625</ele>
        <time>2012-04-17T11:35:50Z</time>
      </trkpt>
      <trkpt lat="48.21205" lon="-3.12737">
        <ele>157.31286621094</ele>
        <time>2012-04-17T11:36:25Z</time>
      </trkpt>
      <trkpt lat="48.21219" lon="-3.12739">
        <ele>164.04211425781</ele>
        <time>2012-04-17T11:37:12Z</time>
      </trkpt>
      <trkpt lat="48.21216" lon="-3.12733">
        <ele>165.00341796875</ele>
        <time>2012-04-17T11:38:26Z</time>
      </trkpt>
      <trkpt lat="48.21223" lon="-3.1275">
        <ele>161.63891601562</ele>
        <time>2012-04-17T11:39:10Z</time>
      </trkpt>
      <trkpt lat="48.21223" lon="-3.12751">
        <ele>161.158203125</ele>
        <time>2012-04-17T11:39:14Z</time>
      </trkpt>
    </trkseg>
  </trk>
</gpx>